Back to Top

Language: 

My Weather Underground Personal Weather Station Historical Data with Graphs...

Delerius Weather Station Historical Data
Daily Summary for April 10, 2017 Units:  English    Metric   Both
« Previous Day
Next Day »
Daily Weekly Monthly Yearly Custom
  High: Low: Average:
Temperature: 56.8 °F 43.9 °F 49.7 °F
Dew Point: 42.3 °F 36.3 °F 39.8 °F
Humidity: 81 % 54 % 69 %
Wind Speed: 15.0 mph 4.0 mph 10 mph
Wind Gust: 29.0 mph - -
Wind:- - WNW
Pressure: 30.33 in 30.11 in -
Precipitation: 0.00 in    
Historical Graphs
 
 
Tabular Data for April 10, 2017
Time Temperature Dew Point Pressure Wind Wind Speed Wind Gust Humidity Rainfall Rate (Hourly) solar Conditions
00:02 48.4 °F 42.2 °F 30.11 in WNW 10.0 mph 19.0 mph 79 % 0.00 in 0 W/m2
00:07 48.0 °F 41.5 °F 30.11 in WNW 10.0 mph 19.0 mph 78 % 0.00 in 0 W/m2
00:12 48.0 °F 41.5 °F 30.11 in WNW 10.0 mph 18.0 mph 78 % 0.00 in 0 W/m2
00:17 47.8 °F 41.0 °F 30.12 in NW 10.0 mph 19.0 mph 77 % 0.00 in 0 W/m2
00:22 47.7 °F 40.5 °F 30.12 in WNW 10.0 mph 19.0 mph 76 % 0.00 in 0 W/m2
00:27 47.5 °F 39.9 °F 30.11 in WNW 10.0 mph 24.0 mph 75 % 0.00 in 0 W/m2
00:32 47.5 °F 39.6 °F 30.12 in WNW 11.0 mph 24.0 mph 74 % 0.00 in 0 W/m2
00:37 47.3 °F 39.1 °F 30.12 in WNW 10.0 mph 22.0 mph 73 % 0.00 in 0 W/m2
00:42 47.1 °F 39.3 °F 30.12 in WNW 10.0 mph 19.0 mph 74 % 0.00 in 0 W/m2
00:47 47.1 °F 39.3 °F 30.12 in WNW 11.0 mph 22.0 mph 74 % 0.00 in 0 W/m2
00:52 46.9 °F 39.1 °F 30.12 in WNW 12.0 mph 22.0 mph 74 % 0.00 in 0 W/m2
00:57 46.8 °F 38.9 °F 30.12 in WNW 11.0 mph 20.0 mph 74 % 0.00 in 0 W/m2
01:02 46.6 °F 39.1 °F 30.12 in WNW 10.0 mph 18.0 mph 75 % 0.00 in 0 W/m2
01:07 46.6 °F 39.1 °F 30.13 in NW 9.0 mph 16.0 mph 75 % 0.00 in 0 W/m2
01:08 46.6 °F 39.4 °F 30.13 in NW 9.0 mph 16.0 mph 76 % 0.00 in 0 W/m2
01:13 46.2 °F 39.4 °F 30.12 in WNW 9.0 mph 21.0 mph 77 % 0.00 in 0 W/m2
01:18 46.0 °F 39.6 °F 30.12 in WNW 11.0 mph 25.0 mph 78 % 0.00 in 0 W/m2
01:23 45.9 °F 39.4 °F 30.13 in WNW 12.0 mph 25.0 mph 78 % 0.00 in 0 W/m2
01:28 45.7 °F 39.5 °F 30.13 in WNW 10.0 mph 24.0 mph 79 % 0.00 in 0 W/m2
01:33 45.5 °F 39.0 °F 30.13 in WNW 10.0 mph 19.0 mph 78 % 0.00 in 0 W/m2
01:38 45.1 °F 38.7 °F 30.13 in WNW 11.0 mph 21.0 mph 78 % 0.00 in 0 W/m2
01:43 45.1 °F 38.7 °F 30.13 in WNW 10.0 mph 21.0 mph 78 % 0.00 in 0 W/m2
01:48 45.0 °F 38.2 °F 30.13 in WNW 10.0 mph 20.0 mph 77 % 0.00 in 0 W/m2
01:53 44.8 °F 37.7 °F 30.13 in WNW 10.0 mph 20.0 mph 76 % 0.00 in 0 W/m2
01:58 44.8 °F 37.7 °F 30.13 in WNW 10.0 mph 20.0 mph 76 % 0.00 in 0 W/m2
02:03 44.8 °F 38.0 °F 30.13 in WNW 11.0 mph 20.0 mph 77 % 0.00 in 0 W/m2
02:08 44.8 °F 38.3 °F 30.13 in WNW 11.0 mph 22.0 mph 78 % 0.00 in 0 W/m2
02:13 44.6 °F 38.2 °F 30.13 in WNW 11.0 mph 22.0 mph 78 % 0.00 in 0 W/m2
02:18 44.4 °F 38.3 °F 30.13 in NW 9.0 mph 21.0 mph 79 % 0.00 in 0 W/m2
02:23 44.2 °F 37.8 °F 30.14 in NW 9.0 mph 21.0 mph 78 % 0.00 in 0 W/m2
02:28 44.2 °F 37.5 °F 30.14 in NW 9.0 mph 16.0 mph 77 % 0.00 in 0 W/m2
02:34 44.1 °F 36.6 °F 30.13 in NW 9.0 mph 18.0 mph 75 % 0.00 in 0 W/m2
02:39 44.1 °F 36.3 °F 30.14 in NW 11.0 mph 19.0 mph 74 % 0.00 in 0 W/m2
02:44 44.1 °F 36.3 °F 30.15 in NW 11.0 mph 19.0 mph 74 % 0.00 in 0 W/m2
02:49 44.1 °F 36.3 °F 30.14 in NW 10.0 mph 18.0 mph 74 % 0.00 in 0 W/m2
02:59 44.1 °F 36.3 °F 30.14 in WNW 12.0 mph 22.0 mph 74 % 0.00 in 0 W/m2
03:04 44.1 °F 36.3 °F 30.15 in WNW 12.0 mph 28.0 mph 74 % 0.00 in 0 W/m2
03:09 44.1 °F 36.3 °F 30.16 in WNW 10.0 mph 28.0 mph 74 % 0.00 in 0 W/m2
03:14 44.1 °F 36.6 °F 30.16 in NW 8.0 mph 18.0 mph 75 % 0.00 in 0 W/m2
03:19 43.9 °F 36.5 °F 30.16 in WNW 8.0 mph 13.0 mph 75 % 0.00 in 0 W/m2
03:24 43.9 °F 36.8 °F 30.17 in West 9.0 mph 16.0 mph 76 % 0.00 in 0 W/m2
03:29 43.9 °F 36.8 °F 30.17 in West 8.0 mph 16.0 mph 76 % 0.00 in 0 W/m2
03:34 43.9 °F 37.1 °F 30.17 in WNW 7.0 mph 12.0 mph 77 % 0.00 in 0 W/m2
03:39 43.9 °F 37.1 °F 30.17 in WNW 6.0 mph 12.0 mph 77 % 0.00 in 0 W/m2
03:44 43.9 °F 37.1 °F 30.17 in WNW 6.0 mph 11.0 mph 77 % 0.00 in 0 W/m2
03:49 43.9 °F 37.5 °F 30.17 in WNW 5.0 mph 11.0 mph 78 % 0.00 in 0 W/m2
03:54 43.9 °F 37.5 °F 30.17 in WNW 4.0 mph 12.0 mph 78 % 0.00 in 0 W/m2
03:59 43.9 °F 37.5 °F 30.17 in NW 5.0 mph 13.0 mph 78 % 0.00 in 0 W/m2
04:04 43.9 °F 37.8 °F 30.17 in WNW 6.0 mph 13.0 mph 79 % 0.00 in 0 W/m2
04:09 44.1 °F 38.0 °F 30.17 in WNW 7.0 mph 11.0 mph 79 % 0.00 in 0 W/m2
04:14 44.1 °F 38.0 °F 30.17 in WNW 6.0 mph 10.0 mph 79 % 0.00 in 0 W/m2
04:19 44.2 °F 38.5 °F 30.18 in WNW 6.0 mph 9.0 mph 80 % 0.00 in 0 W/m2
04:24 44.2 °F 38.5 °F 30.17 in WNW 6.0 mph 12.0 mph 80 % 0.00 in 0 W/m2
04:29 44.4 °F 38.6 °F 30.18 in WNW 7.0 mph 12.0 mph 80 % 0.00 in 0 W/m2
04:34 44.6 °F 39.1 °F 30.18 in WNW 8.0 mph 14.0 mph 81 % 0.00 in 0 W/m2
04:39 44.8 °F 39.3 °F 30.18 in WNW 8.0 mph 14.0 mph 81 % 0.00 in 0 W/m2
04:44 44.8 °F 39.3 °F 30.18 in WNW 7.0 mph 11.0 mph 81 % 0.00 in 0 W/m2
04:54 45.0 °F 39.5 °F 30.18 in West 7.0 mph 15.0 mph 81 % 0.00 in 0 W/m2
04:59 45.0 °F 39.5 °F 30.18 in West 8.0 mph 13.0 mph 81 % 0.00 in 0 W/m2
05:04 45.1 °F 39.3 °F 30.18 in West 9.0 mph 14.0 mph 80 % 0.00 in 0 W/m2
05:09 45.1 °F 39.7 °F 30.18 in West 9.0 mph 16.0 mph 81 % 0.00 in 0 W/m2
05:14 45.3 °F 39.5 °F 30.18 in WNW 9.0 mph 16.0 mph 80 % 0.00 in 0 W/m2
05:19 45.3 °F 39.5 °F 30.18 in WNW 8.0 mph 13.0 mph 80 % 0.00 in 0 W/m2
05:24 45.3 °F 39.5 °F 30.18 in WNW 7.0 mph 11.0 mph 80 % 0.00 in 0 W/m2
05:30 45.3 °F 39.5 °F 30.18 in WNW 7.0 mph 14.0 mph 80 % 0.00 in 0 W/m2
05:35 45.3 °F 39.5 °F 30.19 in WNW 7.0 mph 14.0 mph 80 % 0.00 in 0 W/m2
05:40 45.3 °F 39.5 °F 30.19 in WNW 7.0 mph 14.0 mph 80 % 0.00 in 0 W/m2
05:45 45.3 °F 39.5 °F 30.19 in WNW 7.0 mph 14.0 mph 80 % 0.00 in 0 W/m2
05:50 45.5 °F 39.7 °F 30.19 in WNW 8.0 mph 15.0 mph 80 % 0.00 in 0 W/m2
05:55 45.5 °F 39.7 °F 30.19 in WNW 10.0 mph 15.0 mph 80 % 0.00 in 0 W/m2
06:00 45.5 °F 39.7 °F 30.19 in WNW 12.0 mph 23.0 mph 80 % 0.00 in 0 W/m2
06:05 45.7 °F 40.2 °F 30.19 in WNW 11.0 mph 23.0 mph 81 % 0.00 in 0 W/m2
06:10 45.5 °F 40.0 °F 30.19 in WNW 10.0 mph 20.0 mph 81 % 0.00 in 0 W/m2
06:15 45.3 °F 39.8 °F 30.19 in WNW 11.0 mph 21.0 mph 81 % 0.00 in 5 W/m2
06:20 45.3 °F 39.5 °F 30.20 in WNW 11.0 mph 21.0 mph 80 % 0.00 in 7 W/m2
06:25 45.1 °F 39.3 °F 30.20 in WNW 10.0 mph 19.0 mph 80 % 0.00 in 7 W/m2
06:30 45.0 °F 39.2 °F 30.20 in WNW 9.0 mph 16.0 mph 80 % 0.00 in 12 W/m2
06:35 44.8 °F 39.0 °F 30.20 in WNW 9.0 mph 16.0 mph 80 % 0.00 in 14 W/m2
06:40 44.8 °F 39.0 °F 30.20 in WNW 10.0 mph 21.0 mph 80 % 0.00 in 14 W/m2
06:45 44.6 °F 39.1 °F 30.19 in WNW 11.0 mph 21.0 mph 81 % 0.00 in 14 W/m2
06:50 44.6 °F 38.8 °F 30.19 in WNW 13.0 mph 21.0 mph 80 % 0.00 in 14 W/m2
06:55 44.6 °F 38.8 °F 30.19 in WNW 13.0 mph 22.0 mph 80 % 0.00 in 16 W/m2
07:00 44.4 °F 38.6 °F 30.20 in WNW 10.0 mph 22.0 mph 80 % 0.00 in 19 W/m2
07:05 44.4 °F 38.6 °F 30.20 in WNW 8.0 mph 19.0 mph 80 % 0.00 in 23 W/m2
07:10 44.4 °F 39.0 °F 30.20 in WNW 9.0 mph 19.0 mph 81 % 0.00 in 30 W/m2
07:15 44.6 °F 39.1 °F 30.20 in WNW 10.0 mph 19.0 mph 81 % 0.00 in 26 W/m2
07:20 44.6 °F 39.1 °F 30.20 in WNW 11.0 mph 19.0 mph 81 % 0.00 in 26 W/m2
07:25 44.8 °F 39.3 °F 30.21 in WNW 12.0 mph 22.0 mph 81 % 0.00 in 30 W/m2
07:30 44.8 °F 39.3 °F 30.21 in WNW 13.0 mph 23.0 mph 81 % 0.00 in 32 W/m2
07:35 45.0 °F 39.5 °F 30.21 in WNW 12.0 mph 23.0 mph 81 % 0.00 in 37 W/m2
07:40 45.1 °F 39.3 °F 30.21 in WNW 12.0 mph 26.0 mph 80 % 0.00 in 146 W/m2
07:46 45.5 °F 39.7 °F 30.21 in WNW 12.0 mph 26.0 mph 80 % 0.00 in 185 W/m2
07:51 45.7 °F 39.5 °F 30.21 in WNW 12.0 mph 21.0 mph 79 % 0.00 in 95 W/m2
07:56 45.9 °F 39.7 °F 30.21 in WNW 12.0 mph 22.0 mph 79 % 0.00 in 186 W/m2
08:01 46.0 °F 39.9 °F 30.21 in WNW 12.0 mph 22.0 mph 79 % 0.00 in 223 W/m2
08:06 46.6 °F 40.1 °F 30.22 in WNW 11.0 mph 19.0 mph 78 % 0.00 in 241 W/m2
08:11 46.9 °F 40.4 °F 30.21 in WNW 10.0 mph 20.0 mph 78 % 0.00 in 253 W/m2
08:16 47.5 °F 40.6 °F 30.22 in WNW 10.0 mph 20.0 mph 77 % 0.00 in 271 W/m2
08:21 47.8 °F 40.6 °F 30.22 in WNW 11.0 mph 24.0 mph 76 % 0.00 in 285 W/m2
08:26 48.0 °F 40.5 °F 30.21 in WNW 12.0 mph 24.0 mph 75 % 0.00 in 301 W/m2
08:31 48.2 °F 40.3 °F 30.22 in WNW 14.0 mph 25.0 mph 74 % 0.00 in 318 W/m2
08:36 48.4 °F 40.5 °F 30.22 in WNW 12.0 mph 25.0 mph 74 % 0.00 in 330 W/m2
08:41 48.6 °F 40.6 °F 30.22 in WNW 12.0 mph 24.0 mph 74 % 0.00 in 343 W/m2
08:46 48.9 °F 40.6 °F 30.22 in WNW 14.0 mph 24.0 mph 73 % 0.00 in 359 W/m2
08:51 48.9 °F 40.3 °F 30.22 in WNW 14.0 mph 24.0 mph 72 % 0.00 in 373 W/m2
08:56 49.3 °F 40.3 °F 30.23 in WNW 14.0 mph 23.0 mph 71 % 0.00 in 385 W/m2
09:00 49.5 °F 40.4 °F 30.23 in WNW 13.0 mph 23.0 mph 71 % 0.00 in 397 W/m2
09:05 49.5 °F 40.1 °F 30.23 in WNW 14.0 mph 25.0 mph 70 % 0.00 in 413 W/m2
09:10 49.6 °F 40.3 °F 30.23 in WNW 14.0 mph 25.0 mph 70 % 0.00 in 424 W/m2
09:15 49.6 °F 39.9 °F 30.23 in WNW 15.0 mph 27.0 mph 69 % 0.00 in 436 W/m2
09:20 50.0 °F 39.8 °F 30.23 in WNW 15.0 mph 27.0 mph 68 % 0.00 in 452 W/m2
09:25 50.2 °F 39.6 °F 30.24 in WNW 14.0 mph 29.0 mph 67 % 0.00 in 466 W/m2
09:30 50.5 °F 40.0 °F 30.24 in WNW 14.0 mph 29.0 mph 67 % 0.00 in 478 W/m2
09:35 50.7 °F 39.8 °F 30.24 in WNW 13.0 mph 25.0 mph 66 % 0.00 in 492 W/m2
09:40 51.1 °F 40.1 °F 30.24 in WNW 12.0 mph 23.0 mph 66 % 0.00 in 508 W/m2
09:45 51.4 °F 40.1 °F 30.24 in NW 12.0 mph 23.0 mph 65 % 0.00 in 508 W/m2
09:55 51.8 °F 39.6 °F 30.24 in NW 14.0 mph 23.0 mph 63 % 0.00 in 548 W/m2
10:00 52.2 °F 39.9 °F 30.24 in WNW 12.0 mph 22.0 mph 63 % 0.00 in 547 W/m2
10:05 52.3 °F 39.7 °F 30.24 in NW 13.0 mph 22.0 mph 62 % 0.00 in 529 W/m2
10:10 52.9 °F 40.2 °F 30.24 in NW 11.0 mph 22.0 mph 62 % 0.00 in 540 W/m2
10:15 53.2 °F 39.7 °F 30.24 in WNW 11.0 mph 22.0 mph 60 % 0.00 in 533 W/m2
10:20 53.2 °F 39.7 °F 30.25 in WNW 13.0 mph 25.0 mph 60 % 0.00 in 520 W/m2
10:25 53.2 °F 39.7 °F 30.25 in WNW 13.0 mph 25.0 mph 60 % 0.00 in 599 W/m2
10:30 53.4 °F 40.7 °F 30.25 in WNW 13.0 mph 22.0 mph 62 % 0.00 in 603 W/m2
10:35 53.8 °F 40.6 °F 30.25 in WNW 13.0 mph 26.0 mph 61 % 0.00 in 601 W/m2
10:40 53.6 °F 40.5 °F 30.25 in WNW 14.0 mph 26.0 mph 61 % 0.00 in 401 W/m2
10:45 53.2 °F 40.5 °F 30.26 in WNW 15.0 mph 26.0 mph 62 % 0.00 in 353 W/m2
10:50 53.1 °F 40.4 °F 30.26 in WNW 14.0 mph 26.0 mph 62 % 0.00 in 612 W/m2
10:55 53.1 °F 40.4 °F 30.25 in WNW 12.0 mph 21.0 mph 62 % 0.00 in 359 W/m2
11:00 53.1 °F 40.8 °F 30.26 in WNW 11.0 mph 22.0 mph 63 % 0.00 in 427 W/m2
11:06 52.9 °F 41.0 °F 30.26 in WNW 12.0 mph 22.0 mph 64 % 0.00 in 427 W/m2
11:11 53.2 °F 41.4 °F 30.26 in WNW 12.0 mph 22.0 mph 64 % 0.00 in 427 W/m2
11:16 54.1 °F 41.8 °F 30.26 in NW 11.0 mph 18.0 mph 63 % 0.00 in 868 W/m2
11:21 54.7 °F 41.9 °F 30.26 in WNW 11.0 mph 22.0 mph 62 % 0.00 in 881 W/m2
11:26 54.7 °F 41.5 °F 30.26 in WNW 13.0 mph 22.0 mph 61 % 0.00 in 301 W/m2
11:31 54.1 °F 41.4 °F 30.26 in WNW 13.0 mph 24.0 mph 62 % 0.00 in 768 W/m2
11:36 54.1 °F 41.4 °F 30.26 in WNW 14.0 mph 24.0 mph 62 % 0.00 in 766 W/m2
11:41 54.5 °F 41.7 °F 30.26 in WNW 14.0 mph 22.0 mph 62 % 0.00 in 754 W/m2
11:46 54.7 °F 41.1 °F 30.26 in WNW 12.0 mph 21.0 mph 60 % 0.00 in 789 W/m2
11:51 55.0 °F 41.8 °F 30.26 in NW 10.0 mph 21.0 mph 61 % 0.00 in 846 W/m2
11:56 55.6 °F 42.3 °F 30.26 in NW 9.0 mph 18.0 mph 61 % 0.00 in 1049 W/m2
12:01 55.9 °F 41.8 °F 30.26 in WNW 9.0 mph 18.0 mph 59 % 0.00 in 186 W/m2
12:06 55.4 °F 41.3 °F 30.27 in WNW 10.0 mph 18.0 mph 59 % 0.00 in 178 W/m2
12:11 54.9 °F 41.7 °F 30.27 in WNW 9.0 mph 18.0 mph 61 % 0.00 in 925 W/m2
12:16 55.0 °F 41.0 °F 30.27 in WNW 10.0 mph 19.0 mph 59 % 0.00 in 258 W/m2
12:21 54.7 °F 40.6 °F 30.27 in WNW 11.0 mph 20.0 mph 59 % 0.00 in 257 W/m2
12:26 54.3 °F 39.8 °F 30.27 in NW 10.0 mph 20.0 mph 58 % 0.00 in 183 W/m2
12:31 53.8 °F 39.8 °F 30.27 in NW 10.0 mph 20.0 mph 59 % 0.00 in 332 W/m2
12:36 54.0 °F 40.8 °F 30.27 in WNW 11.0 mph 20.0 mph 61 % 0.00 in 664 W/m2
12:41 54.3 °F 40.7 °F 30.27 in WNW 11.0 mph 20.0 mph 60 % 0.00 in 454 W/m2
12:46 54.7 °F 41.1 °F 30.27 in WNW 11.0 mph 18.0 mph 60 % 0.00 in 431 W/m2
12:51 54.9 °F 40.4 °F 30.27 in WNW 10.0 mph 18.0 mph 58 % 0.00 in 346 W/m2
12:56 54.9 °F 40.4 °F 30.27 in NW 8.0 mph 15.0 mph 58 % 0.00 in 274 W/m2
13:01 54.9 °F 40.4 °F 30.27 in WNW 8.0 mph 18.0 mph 58 % 0.00 in 223 W/m2
13:06 54.7 °F 40.6 °F 30.27 in WNW 10.0 mph 18.0 mph 59 % 0.00 in 243 W/m2
13:11 54.5 °F 40.0 °F 30.28 in WNW 9.0 mph 18.0 mph 58 % 0.00 in 213 W/m2
13:16 54.1 °F 40.1 °F 30.28 in WNW 9.0 mph 14.0 mph 59 % 0.00 in 248 W/m2
13:21 54.3 °F 40.7 °F 30.27 in WNW 9.0 mph 14.0 mph 60 % 0.00 in 288 W/m2
13:26 54.3 °F 40.7 °F 30.27 in WNW 9.0 mph 20.0 mph 60 % 0.00 in 316 W/m2
13:31 54.1 °F 40.6 °F 30.27 in WNW 10.0 mph 20.0 mph 60 % 0.00 in 306 W/m2
13:41 54.1 °F 40.1 °F 30.28 in WNW 10.0 mph 16.0 mph 59 % 0.00 in 425 W/m2
13:46 54.3 °F 40.3 °F 30.27 in WNW 9.0 mph 16.0 mph 59 % 0.00 in 566 W/m2
13:51 54.9 °F 40.4 °F 30.27 in West 9.0 mph 15.0 mph 58 % 0.00 in 552 W/m2
13:55 55.0 °F 40.5 °F 30.27 in West 9.0 mph 15.0 mph 58 % 0.00 in 457 W/m2
14:00 55.6 °F 41.0 °F 30.27 in West 9.0 mph 14.0 mph 58 % 0.00 in 1002 W/m2
14:05 56.1 °F 41.5 °F 30.28 in West 10.0 mph 16.0 mph 58 % 0.00 in 998 W/m2
14:10 56.3 °F 41.3 °F 30.28 in West 10.0 mph 16.0 mph 57 % 0.00 in 392 W/m2
14:15 56.3 °F 40.8 °F 30.28 in West 9.0 mph 16.0 mph 56 % 0.00 in 819 W/m2
14:20 56.5 °F 41.0 °F 30.28 in West 9.0 mph 18.0 mph 56 % 0.00 in 316 W/m2
14:25 55.9 °F 40.5 °F 30.28 in WNW 10.0 mph 18.0 mph 56 % 0.00 in 267 W/m2
14:30 55.8 °F 40.3 °F 30.29 in WNW 10.0 mph 16.0 mph 56 % 0.00 in 288 W/m2
14:35 55.6 °F 40.6 °F 30.28 in WNW 9.0 mph 16.0 mph 57 % 0.00 in 285 W/m2
14:40 55.4 °F 40.9 °F 30.27 in WNW 9.0 mph 16.0 mph 58 % 0.00 in 301 W/m2
14:45 55.2 °F 40.7 °F 30.27 in WNW 9.0 mph 16.0 mph 58 % 0.00 in 336 W/m2
14:50 55.4 °F 40.9 °F 30.27 in WNW 9.0 mph 15.0 mph 58 % 0.00 in 404 W/m2
14:55 55.8 °F 41.2 °F 30.27 in WNW 9.0 mph 15.0 mph 58 % 0.00 in 432 W/m2
15:00 55.9 °F 40.5 °F 30.27 in WNW 9.0 mph 14.0 mph 56 % 0.00 in 432 W/m2
15:05 55.9 °F 40.9 °F 30.27 in WNW 10.0 mph 16.0 mph 57 % 0.00 in 411 W/m2
15:10 55.6 °F 41.0 °F 30.28 in West 12.0 mph 21.0 mph 58 % 0.00 in 429 W/m2
15:15 55.9 °F 41.4 °F 30.28 in West 12.0 mph 21.0 mph 58 % 0.00 in 417 W/m2
15:20 55.9 °F 40.5 °F 30.28 in West 11.0 mph 19.0 mph 56 % 0.00 in 490 W/m2
15:25 55.9 °F 40.5 °F 30.28 in West 11.0 mph 19.0 mph 56 % 0.00 in 343 W/m2
15:30 55.9 °F 40.5 °F 30.28 in WNW 11.0 mph 18.0 mph 56 % 0.00 in 858 W/m2
15:35 56.3 °F 40.8 °F 30.28 in WNW 11.0 mph 18.0 mph 56 % 0.00 in 388 W/m2
15:40 56.3 °F 40.8 °F 30.28 in WNW 11.0 mph 20.0 mph 56 % 0.00 in 538 W/m2
15:46 56.7 °F 41.6 °F 30.28 in WNW 10.0 mph 20.0 mph 57 % 0.00 in 580 W/m2
15:51 56.8 °F 41.8 °F 30.28 in West 11.0 mph 20.0 mph 57 % 0.00 in 642 W/m2
15:56 56.7 °F 40.2 °F 30.28 in WNW 12.0 mph 20.0 mph 54 % 0.00 in 223 W/m2
16:01 55.8 °F 40.3 °F 30.28 in WNW 11.0 mph 19.0 mph 56 % 0.00 in 279 W/m2
16:11 55.8 °F 41.2 °F 30.27 in WNW 10.0 mph 20.0 mph 58 % 0.00 in 294 W/m2
16:16 55.8 °F 41.2 °F 30.28 in WNW 10.0 mph 18.0 mph 58 % 0.00 in 257 W/m2
16:21 55.8 °F 40.7 °F 30.27 in WNW 10.0 mph 20.0 mph 57 % 0.00 in 526 W/m2
16:25 55.9 °F 40.5 °F 30.27 in WNW 10.0 mph 20.0 mph 56 % 0.00 in 501 W/m2
16:31 55.9 °F 40.9 °F 30.28 in WNW 10.0 mph 20.0 mph 57 % 0.00 in 635 W/m2
16:35 56.5 °F 41.4 °F 30.27 in WNW 10.0 mph 21.0 mph 57 % 0.00 in 504 W/m2
16:45 56.1 °F 40.2 °F 30.27 in West 12.0 mph 21.0 mph 55 % 0.00 in 403 W/m2
16:51 55.9 °F 40.5 °F 30.27 in West 11.0 mph 19.0 mph 56 % 0.00 in 457 W/m2
16:55 55.9 °F 41.4 °F 30.27 in West 10.0 mph 19.0 mph 58 % 0.00 in 406 W/m2
17:01 55.9 °F 41.4 °F 30.27 in West 10.0 mph 16.0 mph 58 % 0.00 in 366 W/m2
17:06 55.8 °F 41.2 °F 30.27 in WNW 10.0 mph 18.0 mph 58 % 0.00 in 355 W/m2
17:11 55.8 °F 40.7 °F 30.27 in WNW 10.0 mph 19.0 mph 57 % 0.00 in 362 W/m2
17:16 55.8 °F 41.6 °F 30.27 in WNW 11.0 mph 20.0 mph 59 % 0.00 in 378 W/m2
17:21 55.8 °F 41.2 °F 30.27 in WNW 11.0 mph 20.0 mph 58 % 0.00 in 362 W/m2
17:26 55.9 °F 41.8 °F 30.28 in WNW 10.0 mph 20.0 mph 59 % 0.00 in 343 W/m2
17:36 55.4 °F 40.4 °F 30.28 in WNW 13.0 mph 22.0 mph 57 % 0.00 in 322 W/m2
17:41 55.4 °F 40.9 °F 30.28 in WNW 13.0 mph 21.0 mph 58 % 0.00 in 304 W/m2
17:46 55.2 °F 41.1 °F 30.28 in WNW 12.0 mph 21.0 mph 59 % 0.00 in 285 W/m2
17:51 55.2 °F 41.6 °F 30.28 in WNW 11.0 mph 21.0 mph 60 % 0.00 in 262 W/m2
17:56 55.2 °F 41.6 °F 30.28 in WNW 11.0 mph 20.0 mph 60 % 0.00 in 253 W/m2
18:01 55.0 °F 41.8 °F 30.28 in WNW 11.0 mph 20.0 mph 61 % 0.00 in 244 W/m2
18:06 54.9 °F 41.7 °F 30.28 in WNW 11.0 mph 24.0 mph 61 % 0.00 in 230 W/m2
18:11 54.9 °F 41.7 °F 30.28 in WNW 11.0 mph 24.0 mph 61 % 0.00 in 211 W/m2
18:16 54.7 °F 41.1 °F 30.28 in WNW 12.0 mph 22.0 mph 60 % 0.00 in 193 W/m2
18:21 54.3 °F 41.1 °F 30.28 in WNW 11.0 mph 22.0 mph 61 % 0.00 in 181 W/m2
18:26 54.1 °F 41.4 °F 30.29 in WNW 11.0 mph 19.0 mph 62 % 0.00 in 171 W/m2
18:31 53.8 °F 41.5 °F 30.29 in WNW 11.0 mph 21.0 mph 63 % 0.00 in 163 W/m2
18:36 53.8 °F 41.5 °F 30.29 in West 11.0 mph 21.0 mph 63 % 0.00 in 146 W/m2
18:41 53.4 °F 41.1 °F 30.29 in WNW 10.0 mph 19.0 mph 63 % 0.00 in 125 W/m2
18:46 53.2 °F 41.4 °F 30.29 in West 11.0 mph 19.0 mph 64 % 0.00 in 77 W/m2
18:51 52.9 °F 41.4 °F 30.29 in West 9.0 mph 16.0 mph 65 % 0.00 in 53 W/m2
18:56 52.5 °F 41.5 °F 30.29 in West 7.0 mph 16.0 mph 66 % 0.00 in 39 W/m2
19:01 52.2 °F 41.1 °F 30.29 in WNW 7.0 mph 14.0 mph 66 % 0.00 in 42 W/m2
19:06 51.8 °F 40.8 °F 30.29 in WNW 8.0 mph 20.0 mph 66 % 0.00 in 42 W/m2
19:11 51.4 °F 40.5 °F 30.29 in WNW 10.0 mph 20.0 mph 66 % 0.00 in 42 W/m2
19:16 51.3 °F 40.7 °F 30.29 in WNW 11.0 mph 21.0 mph 67 % 0.00 in 39 W/m2
19:26 50.9 °F 40.7 °F 30.29 in WNW 11.0 mph 20.0 mph 68 % 0.00 in 25 W/m2
19:31 50.7 °F 40.9 °F 30.29 in WNW 9.0 mph 16.0 mph 69 % 0.00 in 19 W/m2
19:36 50.5 °F 40.7 °F 30.29 in WNW 9.0 mph 15.0 mph 69 % 0.00 in 18 W/m2
19:41 50.4 °F 40.9 °F 30.29 in WNW 10.0 mph 15.0 mph 70 % 0.00 in 14 W/m2
19:46 50.2 °F 41.1 °F 30.29 in West 9.0 mph 15.0 mph 71 % 0.00 in 9 W/m2
19:51 50.0 °F 40.6 °F 30.29 in WNW 10.0 mph 19.0 mph 70 % 0.00 in 5 W/m2
19:56 49.8 °F 40.4 °F 30.30 in WNW 10.0 mph 19.0 mph 70 % 0.00 in 0 W/m2
20:01 49.6 °F 40.6 °F 30.30 in WNW 9.0 mph 18.0 mph 71 % 0.00 in 0 W/m2
20:06 49.5 °F 40.8 °F 30.30 in WNW 10.0 mph 16.0 mph 72 % 0.00 in 0 W/m2
20:11 49.3 °F 40.6 °F 30.30 in WNW 10.0 mph 15.0 mph 72 % 0.00 in 0 W/m2
20:16 49.1 °F 40.8 °F 30.30 in WNW 9.0 mph 15.0 mph 73 % 0.00 in 0 W/m2
20:21 48.9 °F 40.6 °F 30.30 in WNW 8.0 mph 14.0 mph 73 % 0.00 in 0 W/m2
20:26 48.7 °F 40.8 °F 30.31 in WNW 9.0 mph 16.0 mph 74 % 0.00 in 0 W/m2
20:32 48.6 °F 40.6 °F 30.31 in WNW 10.0 mph 19.0 mph 74 % 0.00 in 0 W/m2
20:37 48.4 °F 40.5 °F 30.31 in West 11.0 mph 19.0 mph 74 % 0.00 in 0 W/m2
20:42 48.4 °F 40.5 °F 30.31 in West 9.0 mph 18.0 mph 74 % 0.00 in 0 W/m2
20:47 48.0 °F 40.5 °F 30.31 in WNW 9.0 mph 19.0 mph 75 % 0.00 in 0 W/m2
20:52 48.0 °F 40.5 °F 30.31 in WNW 10.0 mph 19.0 mph 75 % 0.00 in 0 W/m2
20:57 47.8 °F 40.0 °F 30.31 in WNW 9.0 mph 18.0 mph 74 % 0.00 in 0 W/m2
21:02 47.8 °F 40.0 °F 30.31 in WNW 10.0 mph 16.0 mph 74 % 0.00 in 0 W/m2
21:07 47.8 °F 40.0 °F 30.31 in WNW 10.0 mph 16.0 mph 74 % 0.00 in 0 W/m2
21:12 47.8 °F 39.6 °F 30.31 in WNW 10.0 mph 16.0 mph 73 % 0.00 in 0 W/m2
21:17 47.7 °F 39.4 °F 30.31 in WNW 10.0 mph 16.0 mph 73 % 0.00 in 0 W/m2
21:22 47.7 °F 39.1 °F 30.31 in WNW 9.0 mph 14.0 mph 72 % 0.00 in 0 W/m2
21:27 47.7 °F 39.1 °F 30.31 in WNW 9.0 mph 15.0 mph 72 % 0.00 in 0 W/m2
21:32 47.7 °F 38.7 °F 30.32 in WNW 9.0 mph 15.0 mph 71 % 0.00 in 0 W/m2
21:37 47.7 °F 38.7 °F 30.32 in WNW 8.0 mph 18.0 mph 71 % 0.00 in 0 W/m2
21:42 47.7 °F 38.4 °F 30.32 in WNW 9.0 mph 18.0 mph 70 % 0.00 in 0 W/m2
21:47 47.5 °F 38.2 °F 30.32 in WNW 9.0 mph 14.0 mph 70 % 0.00 in 0 W/m2
21:52 47.5 °F 38.2 °F 30.33 in WNW 9.0 mph 15.0 mph 70 % 0.00 in 0 W/m2
21:57 47.5 °F 38.2 °F 30.33 in WNW 9.0 mph 15.0 mph 70 % 0.00 in 0 W/m2
22:02 47.5 °F 38.5 °F 30.33 in WNW 9.0 mph 15.0 mph 71 % 0.00 in 0 W/m2
22:07 47.5 °F 38.5 °F 30.33 in WNW 9.0 mph 15.0 mph 71 % 0.00 in 0 W/m2
22:12 47.3 °F 38.7 °F 30.33 in WNW 8.0 mph 13.0 mph 72 % 0.00 in 0 W/m2
22:17 47.1 °F 38.9 °F 30.33 in WNW 8.0 mph 13.0 mph 73 % 0.00 in 0 W/m2
22:22 46.9 °F 38.7 °F 30.33 in WNW 8.0 mph 13.0 mph 73 % 0.00 in 0 W/m2
22:27 46.9 °F 39.1 °F 30.33 in WNW 8.0 mph 13.0 mph 74 % 0.00 in 0 W/m2
22:32 46.9 °F 39.1 °F 30.33 in WNW 7.0 mph 13.0 mph 74 % 0.00 in 0 W/m2
22:38 46.9 °F 39.1 °F 30.33 in WNW 8.0 mph 13.0 mph 74 % 0.00 in 0 W/m2
22:43 46.8 °F 38.9 °F 30.33 in WNW 8.0 mph 13.0 mph 74 % 0.00 in 0 W/m2
22:48 46.8 °F 39.3 °F 30.33 in WNW 8.0 mph 13.0 mph 75 % 0.00 in 0 W/m2
22:53 46.8 °F 39.3 °F 30.33 in WNW 8.0 mph 13.0 mph 75 % 0.00 in 0 W/m2
22:58 46.8 °F 39.3 °F 30.33 in WNW 8.0 mph 14.0 mph 75 % 0.00 in 0 W/m2
23:03 46.6 °F 39.1 °F 30.33 in WNW 8.0 mph 14.0 mph 75 % 0.00 in 0 W/m2
23:08 46.6 °F 39.1 °F 30.33 in WNW 8.0 mph 13.0 mph 75 % 0.00 in 0 W/m2
23:13 46.4 °F 38.9 °F 30.33 in WNW 8.0 mph 13.0 mph 75 % 0.00 in 0 W/m2
23:18 46.2 °F 38.7 °F 30.33 in WNW 8.0 mph 13.0 mph 75 % 0.00 in 0 W/m2
23:23 46.2 °F 38.7 °F 30.33 in WNW 8.0 mph 15.0 mph 75 % 0.00 in 0 W/m2
23:24 46.0 °F 38.6 °F 30.33 in WNW 8.0 mph 15.0 mph 75 % 0.00 in 0 W/m2
23:29 46.0 °F 38.6 °F 30.33 in WNW 8.0 mph 15.0 mph 75 % 0.00 in 0 W/m2
23:39 45.7 °F 38.2 °F 30.33 in WNW 7.0 mph 12.0 mph 75 % 0.00 in 0 W/m2
23:44 45.5 °F 38.4 °F 30.33 in WNW 7.0 mph 12.0 mph 76 % 0.00 in 0 W/m2
23:49 45.3 °F 38.2 °F 30.32 in WNW 7.0 mph 12.0 mph 76 % 0.00 in 0 W/m2
23:54 45.1 °F 38.4 °F 30.32 in WNW 8.0 mph 12.0 mph 77 % 0.00 in 0 W/m2
23:59 45.0 °F 38.2 °F 30.32 in WNW 8.0 mph 15.0 mph 77 % 0.00 in 0 W/m2
Delerius-Weather
Compliments of Weather Underground - 2.25 mb

Data updates at regular intervals.